sensor_id;sensor_type;location;lat;lon;timestamp;temperature;humidity
26687;DHT22;14298;50.900;4.648;2023-04-15T00:02:20;8.80;97.10
26687;DHT22;14298;50.900;4.648;2023-04-15T00:04:46;8.90;97.10
26687;DHT22;14298;50.900;4.648;2023-04-15T00:07:15;9.00;97.10
26687;DHT22;14298;50.900;4.648;2023-04-15T00:09:44;9.10;97.10
26687;DHT22;14298;50.900;4.648;2023-04-15T00:12:12;9.20;97.10
26687;DHT22;14298;50.900;4.648;2023-04-15T00:15:00;9.20;97.10
26687;DHT22;14298;50.900;4.648;2023-04-15T00:17:28;9.20;97.10
26687;DHT22;14298;50.900;4.648;2023-04-15T00:19:57;9.20;97.10
26687;DHT22;14298;50.900;4.648;2023-04-15T00:22:26;9.10;97.10
26687;DHT22;14298;50.900;4.648;2023-04-15T00:24:55;9.00;97.10
26687;DHT22;14298;50.900;4.648;2023-04-15T00:27:23;8.90;97.10
26687;DHT22;14298;50.900;4.648;2023-04-15T00:29:51;8.80;97.10
26687;DHT22;14298;50.900;4.648;2023-04-15T00:32:20;8.80;97.10
26687;DHT22;14298;50.900;4.648;2023-04-15T00:34:48;8.80;97.10
26687;DHT22;14298;50.900;4.648;2023-04-15T00:37:17;8.80;97.10
26687;DHT22;14298;50.900;4.648;2023-04-15T00:39:45;8.80;97.10
26687;DHT22;14298;50.900;4.648;2023-04-15T00:42:13;8.80;97.10
26687;DHT22;14298;50.900;4.648;2023-04-15T00:44:42;8.80;97.10
26687;DHT22;14298;50.900;4.648;2023-04-15T00:47:10;8.70;97.10
26687;DHT22;14298;50.900;4.648;2023-04-15T00:49:39;8.70;97.10
26687;DHT22;14298;50.900;4.648;2023-04-15T00:52:08;8.70;97.10
26687;DHT22;14298;50.900;4.648;2023-04-15T00:54:55;8.70;97.10
26687;DHT22;14298;50.900;4.648;2023-04-15T00:57:24;8.80;97.10
26687;DHT22;14298;50.900;4.648;2023-04-15T00:59:55;8.80;97.10
26687;DHT22;14298;50.900;4.648;2023-04-15T01:02:23;8.70;97.10
26687;DHT22;14298;50.900;4.648;2023-04-15T01:04:52;8.80;97.10
26687;DHT22;14298;50.900;4.648;2023-04-15T01:07:20;8.80;97.10
26687;DHT22;14298;50.900;4.648;2023-04-15T01:09:49;8.80;97.10
26687;DHT22;14298;50.900;4.648;2023-04-15T01:12:17;8.80;97.10
26687;DHT22;14298;50.900;4.648;2023-04-15T01:14:46;8.80;97.10
26687;DHT22;14298;50.900;4.648;2023-04-15T01:17:15;8.80;97.10
26687;DHT22;14298;50.900;4.648;2023-04-15T01:19:44;8.80;97.10
26687;DHT22;14298;50.900;4.648;2023-04-15T01:22:12;8.90;97.10
26687;DHT22;14298;50.900;4.648;2023-04-15T01:24:53;8.90;97.10
26687;DHT22;14298;50.900;4.648;2023-04-15T01:27:15;8.90;97.10
26687;DHT22;14298;50.900;4.648;2023-04-15T01:29:43;8.90;97.10
26687;DHT22;14298;50.900;4.648;2023-04-15T01:32:12;8.90;97.10
26687;DHT22;14298;50.900;4.648;2023-04-15T01:34:40;8.90;97.10
26687;DHT22;14298;50.900;4.648;2023-04-15T01:37:08;9.00;97.10
26687;DHT22;14298;50.900;4.648;2023-04-15T01:39:37;9.00;97.10
26687;DHT22;14298;50.900;4.648;2023-04-15T01:42:05;9.00;97.10
26687;DHT22;14298;50.900;4.648;2023-04-15T01:44:34;9.00;97.10
26687;DHT22;14298;50.900;4.648;2023-04-15T01:47:02;8.90;97.10
26687;DHT22;14298;50.900;4.648;2023-04-15T01:49:32;8.80;97.10
26687;DHT22;14298;50.900;4.648;2023-04-15T01:52:00;8.80;97.10
26687;DHT22;14298;50.900;4.648;2023-04-15T01:54:28;8.80;97.10
26687;DHT22;14298;50.900;4.648;2023-04-15T01:56:57;8.80;97.10
26687;DHT22;14298;50.900;4.648;2023-04-15T01:59:25;8.90;97.10
26687;DHT22;14298;50.900;4.648;2023-04-15T02:01:53;8.90;97.10
26687;DHT22;14298;50.900;4.648;2023-04-15T02:04:22;8.80;97.10
26687;DHT22;14298;50.900;4.648;2023-04-15T02:06:50;8.90;97.10
26687;DHT22;14298;50.900;4.648;2023-04-15T02:09:19;8.90;97.10
26687;DHT22;14298;50.900;4.648;2023-04-15T02:11:47;8.90;97.10
26687;DHT22;14298;50.900;4.648;2023-04-15T02:14:15;8.90;97.10
26687;DHT22;14298;50.900;4.648;2023-04-15T02:16:44;8.90;97.10
26687;DHT22;14298;50.900;4.648;2023-04-15T02:19:12;8.90;97.10
26687;DHT22;14298;50.900;4.648;2023-04-15T02:21:42;8.80;97.10
26687;DHT22;14298;50.900;4.648;2023-04-15T02:24:10;8.80;97.10
26687;DHT22;14298;50.900;4.648;2023-04-15T02:26:38;8.70;97.10
26687;DHT22;14298;50.900;4.648;2023-04-15T02:29:06;8.70;97.10
26687;DHT22;14298;50.900;4.648;2023-04-15T02:31:35;8.70;97.10
26687;DHT22;14298;50.900;4.648;2023-04-15T02:34:05;8.70;97.10
26687;DHT22;14298;50.900;4.648;2023-04-15T02:36:33;8.60;97.10
26687;DHT22;14298;50.900;4.648;2023-04-15T02:39:02;8.60;97.10
26687;DHT22;14298;50.900;4.648;2023-04-15T02:41:30;8.60;97.10
26687;DHT22;14298;50.900;4.648;2023-04-15T02:43:58;8.50;97.10
26687;DHT22;14298;50.900;4.648;2023-04-15T02:46:27;8.50;97.10
26687;DHT22;14298;50.900;4.648;2023-04-15T02:48:59;8.50;97.10
26687;DHT22;14298;50.900;4.648;2023-04-15T02:51:30;8.60;97.10
26687;DHT22;14298;50.900;4.648;2023-04-15T02:53:58;8.60;97.10
26687;DHT22;14298;50.900;4.648;2023-04-15T02:56:27;8.60;97.10
26687;DHT22;14298;50.900;4.648;2023-04-15T02:58:57;8.70;97.10
26687;DHT22;14298;50.900;4.648;2023-04-15T03:01:25;8.60;97.10
26687;DHT22;14298;50.900;4.648;2023-04-15T03:03:53;8.70;97.10
26687;DHT22;14298;50.900;4.648;2023-04-15T03:06:22;8.70;97.10
26687;DHT22;14298;50.900;4.648;2023-04-15T03:08:51;8.60;97.10
26687;DHT22;14298;50.900;4.648;2023-04-15T03:11:19;8.60;97.10
26687;DHT22;14298;50.900;4.648;2023-04-15T03:13:48;8.60;97.10
26687;DHT22;14298;50.900;4.648;2023-04-15T03:16:16;8.60;97.10
26687;DHT22;14298;50.900;4.648;2023-04-15T03:18:44;8.60;97.10
26687;DHT22;14298;50.900;4.648;2023-04-15T03:21:13;8.60;97.10
26687;DHT22;14298;50.900;4.648;2023-04-15T03:23:41;8.50;97.10
26687;DHT22;14298;50.900;4.648;2023-04-15T03:26:10;8.50;97.10
26687;DHT22;14298;50.900;4.648;2023-04-15T03:28:39;8.50;97.10
26687;DHT22;14298;50.900;4.648;2023-04-15T03:31:08;8.50;97.10
26687;DHT22;14298;50.900;4.648;2023-04-15T03:33:36;8.50;97.10
26687;DHT22;14298;50.900;4.648;2023-04-15T03:36:06;8.50;97.10
26687;DHT22;14298;50.900;4.648;2023-04-15T03:38:34;8.50;97.10
26687;DHT22;14298;50.900;4.648;2023-04-15T03:41:02;8.50;97.10
26687;DHT22;14298;50.900;4.648;2023-04-15T03:43:31;8.50;97.10
26687;DHT22;14298;50.900;4.648;2023-04-15T03:46:00;8.40;97.10
26687;DHT22;14298;50.900;4.648;2023-04-15T03:48:29;8.40;97.10
26687;DHT22;14298;50.900;4.648;2023-04-15T03:50:57;8.50;97.10
26687;DHT22;14298;50.900;4.648;2023-04-15T03:53:25;8.50;97.10
26687;DHT22;14298;50.900;4.648;2023-04-15T03:55:53;8.50;97.10
26687;DHT22;14298;50.900;4.648;2023-04-15T03:58:22;8.50;97.10
26687;DHT22;14298;50.900;4.648;2023-04-15T04:00:50;8.50;97.10
26687;DHT22;14298;50.900;4.648;2023-04-15T04:03:19;8.50;97.10
26687;DHT22;14298;50.900;4.648;2023-04-15T04:05:47;8.50;97.10
26687;DHT22;14298;50.900;4.648;2023-04-15T04:08:15;8.50;97.10
26687;DHT22;14298;50.900;4.648;2023-04-15T04:10:45;8.50;97.10
26687;DHT22;14298;50.900;4.648;2023-04-15T04:13:14;8.50;97.10
26687;DHT22;14298;50.900;4.648;2023-04-15T04:15:42;8.50;97.10
26687;DHT22;14298;50.900;4.648;2023-04-15T04:18:10;8.50;97.10
26687;DHT22;14298;50.900;4.648;2023-04-15T04:20:39;8.50;97.10
26687;DHT22;14298;50.900;4.648;2023-04-15T04:23:07;8.50;97.10
26687;DHT22;14298;50.900;4.648;2023-04-15T04:25:35;8.50;97.10
26687;DHT22;14298;50.900;4.648;2023-04-15T04:28:04;8.50;97.10
26687;DHT22;14298;50.900;4.648;2023-04-15T04:30:32;8.50;97.10
26687;DHT22;14298;50.900;4.648;2023-04-15T04:33:00;8.40;97.10
26687;DHT22;14298;50.900;4.648;2023-04-15T04:35:29;8.40;97.10
26687;DHT22;14298;50.900;4.648;2023-04-15T04:37:59;8.40;97.10
26687;DHT22;14298;50.900;4.648;2023-04-15T04:40:28;8.40;97.10
26687;DHT22;14298;50.900;4.648;2023-04-15T04:42:56;8.40;97.10
26687;DHT22;14298;50.900;4.648;2023-04-15T04:45:24;8.30;97.10
26687;DHT22;14298;50.900;4.648;2023-04-15T04:47:54;8.20;97.10
26687;DHT22;14298;50.900;4.648;2023-04-15T04:50:22;8.20;97.10
26687;DHT22;14298;50.900;4.648;2023-04-15T04:52:51;8.20;97.10
26687;DHT22;14298;50.900;4.648;2023-04-15T04:55:19;8.20;97.10
26687;DHT22;14298;50.900;4.648;2023-04-15T04:57:48;8.20;97.10
26687;DHT22;14298;50.900;4.648;2023-04-15T05:00:17;8.10;97.10
26687;DHT22;14298;50.900;4.648;2023-04-15T05:02:45;8.10;97.10
26687;DHT22;14298;50.900;4.648;2023-04-15T05:05:13;8.00;97.10
26687;DHT22;14298;50.900;4.648;2023-04-15T05:07:42;8.00;97.10
26687;DHT22;14298;50.900;4.648;2023-04-15T05:10:30;8.00;97.10
26687;DHT22;14298;50.900;4.648;2023-04-15T05:12:58;8.10;97.10
26687;DHT22;14298;50.900;4.648;2023-04-15T05:15:27;8.10;97.10
26687;DHT22;14298;50.900;4.648;2023-04-15T05:17:55;8.20;97.10
26687;DHT22;14298;50.900;4.648;2023-04-15T05:20:23;8.20;97.10
26687;DHT22;14298;50.900;4.648;2023-04-15T05:22:52;8.20;97.10
26687;DHT22;14298;50.900;4.648;2023-04-15T05:25:20;8.20;97.10
26687;DHT22;14298;50.900;4.648;2023-04-15T05:27:48;8.20;97.10
26687;DHT22;14298;50.900;4.648;2023-04-15T05:30:17;8.10;97.10
26687;DHT22;14298;50.900;4.648;2023-04-15T05:32:45;8.10;97.10
26687;DHT22;14298;50.900;4.648;2023-04-15T05:35:13;8.10;97.10
26687;DHT22;14298;50.900;4.648;2023-04-15T05:37:42;8.20;97.10
26687;DHT22;14298;50.900;4.648;2023-04-15T05:40:11;8.10;97.10
26687;DHT22;14298;50.900;4.648;2023-04-15T05:42:39;8.20;97.10
26687;DHT22;14298;50.900;4.648;2023-04-15T05:45:07;8.30;97.10
26687;DHT22;14298;50.900;4.648;2023-04-15T05:47:36;8.30;97.10
26687;DHT22;14298;50.900;4.648;2023-04-15T05:50:05;8.40;97.10
26687;DHT22;14298;50.900;4.648;2023-04-15T05:52:34;8.40;97.10
26687;DHT22;14298;50.900;4.648;2023-04-15T05:55:03;8.30;97.10
26687;DHT22;14298;50.900;4.648;2023-04-15T05:57:32;8.30;97.10
26687;DHT22;14298;50.900;4.648;2023-04-15T06:00:00;8.40;97.10
26687;DHT22;14298;50.900;4.648;2023-04-15T06:02:29;8.40;97.10
26687;DHT22;14298;50.900;4.648;2023-04-15T06:04:58;8.40;97.10
26687;DHT22;14298;50.900;4.648;2023-04-15T06:07:27;8.50;97.10
26687;DHT22;14298;50.900;4.648;2023-04-15T06:09:55;8.50;97.10
26687;DHT22;14298;50.900;4.648;2023-04-15T06:12:23;8.60;97.10
26687;DHT22;14298;50.900;4.648;2023-04-15T06:14:52;8.60;97.10
26687;DHT22;14298;50.900;4.648;2023-04-15T06:17:20;8.70;97.10
26687;DHT22;14298;50.900;4.648;2023-04-15T06:19:48;8.80;97.10
26687;DHT22;14298;50.900;4.648;2023-04-15T06:22:18;8.90;97.10
26687;DHT22;14298;50.900;4.648;2023-04-15T06:24:47;9.00;97.10
26687;DHT22;14298;50.900;4.648;2023-04-15T06:27:17;9.00;97.10
26687;DHT22;14298;50.900;4.648;2023-04-15T06:29:45;9.10;97.10
26687;DHT22;14298;50.900;4.648;2023-04-15T06:32:14;9.10;97.10
26687;DHT22;14298;50.900;4.648;2023-04-15T06:34:42;9.10;97.10
26687;DHT22;14298;50.900;4.648;2023-04-15T06:37:10;9.10;97.10
26687;DHT22;14298;50.900;4.648;2023-04-15T06:39:41;9.10;97.10
26687;DHT22;14298;50.900;4.648;2023-04-15T06:42:11;9.20;97.10
26687;DHT22;14298;50.900;4.648;2023-04-15T06:44:39;9.40;97.10
26687;DHT22;14298;50.900;4.648;2023-04-15T06:47:07;9.60;97.10
26687;DHT22;14298;50.900;4.648;2023-04-15T06:49:36;9.60;97.10
26687;DHT22;14298;50.900;4.648;2023-04-15T06:52:05;9.80;97.10
26687;DHT22;14298;50.900;4.648;2023-04-15T06:54:33;10.10;97.10
26687;DHT22;14298;50.900;4.648;2023-04-15T06:57:01;10.20;97.10
26687;DHT22;14298;50.900;4.648;2023-04-15T06:59:29;10.40;97.10
26687;DHT22;14298;50.900;4.648;2023-04-15T07:01:58;10.70;97.10
26687;DHT22;14298;50.900;4.648;2023-04-15T07:04:27;10.80;97.10
26687;DHT22;14298;50.900;4.648;2023-04-15T07:06:55;10.90;97.10
26687;DHT22;14298;50.900;4.648;2023-04-15T07:09:24;10.80;97.10
26687;DHT22;14298;50.900;4.648;2023-04-15T07:11:53;10.60;97.10
26687;DHT22;14298;50.900;4.648;2023-04-15T07:14:21;10.80;97.10
26687;DHT22;14298;50.900;4.648;2023-04-15T07:16:50;10.90;97.10
26687;DHT22;14298;50.900;4.648;2023-04-15T07:19:18;11.00;97.10
26687;DHT22;14298;50.900;4.648;2023-04-15T07:21:47;11.30;97.10
26687;DHT22;14298;50.900;4.648;2023-04-15T07:24:15;11.70;97.10
26687;DHT22;14298;50.900;4.648;2023-04-15T07:26:45;11.80;97.10
26687;DHT22;14298;50.900;4.648;2023-04-15T07:29:14;12.30;97.10
26687;DHT22;14298;50.900;4.648;2023-04-15T07:31:42;12.30;97.10
26687;DHT22;14298;50.900;4.648;2023-04-15T07:34:11;12.00;97.10
26687;DHT22;14298;50.900;4.648;2023-04-15T07:36:39;11.70;97.10
26687;DHT22;14298;50.900;4.648;2023-04-15T07:39:07;12.00;97.10
26687;DHT22;14298;50.900;4.648;2023-04-15T07:41:36;12.40;97.10
26687;DHT22;14298;50.900;4.648;2023-04-15T07:44:04;12.10;97.10
26687;DHT22;14298;50.900;4.648;2023-04-15T07:46:33;11.70;97.10
26687;DHT22;14298;50.900;4.648;2023-04-15T07:49:01;11.80;97.10
26687;DHT22;14298;50.900;4.648;2023-04-15T07:51:29;12.00;97.10
26687;DHT22;14298;50.900;4.648;2023-04-15T07:53:58;12.20;97.10
26687;DHT22;14298;50.900;4.648;2023-04-15T07:56:26;12.80;97.10
26687;DHT22;14298;50.900;4.648;2023-04-15T07:58:55;13.30;97.10
26687;DHT22;14298;50.900;4.648;2023-04-15T08:01:23;13.40;97.10
26687;DHT22;14298;50.900;4.648;2023-04-15T08:03:51;13.80;97.10
26687;DHT22;14298;50.900;4.648;2023-04-15T08:06:21;14.70;97.10
26687;DHT22;14298;50.900;4.648;2023-04-15T08:08:49;15.10;97.10
26687;DHT22;14298;50.900;4.648;2023-04-15T08:11:18;15.40;97.10
26687;DHT22;14298;50.900;4.648;2023-04-15T08:13:46;15.80;97.10
26687;DHT22;14298;50.900;4.648;2023-04-15T08:16:23;16.30;97.10
26687;DHT22;14298;50.900;4.648;2023-04-15T08:18:52;16.20;97.10
26687;DHT22;14298;50.900;4.648;2023-04-15T08:21:21;16.10;97.10
26687;DHT22;14298;50.900;4.648;2023-04-15T08:23:51;16.50;97.10
26687;DHT22;14298;50.900;4.648;2023-04-15T08:26:20;16.90;97.10
26687;DHT22;14298;50.900;4.648;2023-04-15T08:28:49;16.60;97.10
26687;DHT22;14298;50.900;4.648;2023-04-15T08:31:18;16.60;97.10
26687;DHT22;14298;50.900;4.648;2023-04-15T08:33:47;16.40;97.10
26687;DHT22;14298;50.900;4.648;2023-04-15T08:36:18;16.30;97.10
26687;DHT22;14298;50.900;4.648;2023-04-15T08:38:47;16.80;97.10
26687;DHT22;14298;50.900;4.648;2023-04-15T08:41:24;16.80;97.10
26687;DHT22;14298;50.900;4.648;2023-04-15T08:43:57;16.40;97.10
26687;DHT22;14298;50.900;4.648;2023-04-15T08:46:27;16.60;97.10
26687;DHT22;14298;50.900;4.648;2023-04-15T08:48:57;16.80;97.10
26687;DHT22;14298;50.900;4.648;2023-04-15T08:51:27;17.40;97.10
26687;DHT22;14298;50.900;4.648;2023-04-15T08:53:56;17.90;97.10
26687;DHT22;14298;50.900;4.648;2023-04-15T08:56:25;17.60;97.10
26687;DHT22;14298;50.900;4.648;2023-04-15T08:58:55;17.70;97.10
26687;DHT22;14298;50.900;4.648;2023-04-15T09:01:24;17.80;97.10
26687;DHT22;14298;50.900;4.648;2023-04-15T09:03:53;17.90;97.10
26687;DHT22;14298;50.900;4.648;2023-04-15T09:06:23;18.00;97.10
26687;DHT22;14298;50.900;4.648;2023-04-15T09:08:52;17.00;97.10
26687;DHT22;14298;50.900;4.648;2023-04-15T09:11:21;17.10;97.10
26687;DHT22;14298;50.900;4.648;2023-04-15T09:13:50;17.90;97.10
26687;DHT22;14298;50.900;4.648;2023-04-15T09:16:18;18.40;97.10
26687;DHT22;14298;50.900;4.648;2023-04-15T09:18:46;18.80;97.10
26687;DHT22;14298;50.900;4.648;2023-04-15T09:21:16;18.70;97.10
26687;DHT22;14298;50.900;4.648;2023-04-15T09:23:59;18.10;97.10
26687;DHT22;14298;50.900;4.648;2023-04-15T09:26:35;17.80;97.10
26687;DHT22;14298;50.900;4.648;2023-04-15T09:29:06;17.70;97.10
26687;DHT22;14298;50.900;4.648;2023-04-15T09:31:36;17.70;97.10
26687;DHT22;14298;50.900;4.648;2023-04-15T09:34:05;17.60;97.10
26687;DHT22;14298;50.900;4.648;2023-04-15T09:36:50;18.40;97.10
26687;DHT22;14298;50.900;4.648;2023-04-15T09:39:07;19.50;97.10
26687;DHT22;14298;50.900;4.648;2023-04-15T09:41:36;19.30;97.10
26687;DHT22;14298;50.900;4.648;2023-04-15T09:44:05;19.10;97.10
26687;DHT22;14298;50.900;4.648;2023-04-15T09:46:44;19.10;97.10
26687;DHT22;14298;50.900;4.648;2023-04-15T09:49:13;19.50;97.10
26687;DHT22;14298;50.900;4.648;2023-04-15T09:52:01;18.60;97.10
26687;DHT22;14298;50.900;4.648;2023-04-15T09:54:35;19.00;97.10
26687;DHT22;14298;50.900;4.648;2023-04-15T09:57:07;18.70;97.10
26687;DHT22;14298;50.900;4.648;2023-04-15T09:59:39;18.10;97.10
26687;DHT22;14298;50.900;4.648;2023-04-15T10:02:07;19.10;97.10
26687;DHT22;14298;50.900;4.648;2023-04-15T10:04:39;18.70;97.10
26687;DHT22;14298;50.900;4.648;2023-04-15T10:07:09;18.60;97.10
26687;DHT22;14298;50.900;4.648;2023-04-15T10:09:39;19.50;97.10
26687;DHT22;14298;50.900;4.648;2023-04-15T10:12:08;19.90;97.10
26687;DHT22;14298;50.900;4.648;2023-04-15T10:14:37;19.50;97.10
26687;DHT22;14298;50.900;4.648;2023-04-15T10:17:07;19.00;97.10
26687;DHT22;14298;50.900;4.648;2023-04-15T10:19:37;18.30;97.10
26687;DHT22;14298;50.900;4.648;2023-04-15T10:22:07;17.00;97.10
26687;DHT22;14298;50.900;4.648;2023-04-15T10:24:36;16.50;97.10
26687;DHT22;14298;50.900;4.648;2023-04-15T10:27:06;16.10;97.10
26687;DHT22;14298;50.900;4.648;2023-04-15T10:29:35;16.00;97.10
26687;DHT22;14298;50.900;4.648;2023-04-15T10:32:04;15.70;97.10
26687;DHT22;14298;50.900;4.648;2023-04-15T10:34:33;15.60;97.10
26687;DHT22;14298;50.900;4.648;2023-04-15T10:37:02;15.80;97.10
26687;DHT22;14298;50.900;4.648;2023-04-15T10:42:11;15.20;97.10
26687;DHT22;14298;50.900;4.648;2023-04-15T10:44:51;15.10;97.10
26687;DHT22;14298;50.900;4.648;2023-04-15T10:47:16;15.30;97.10
26687;DHT22;14298;50.900;4.648;2023-04-15T10:49:56;15.40;97.10
26687;DHT22;14298;50.900;4.648;2023-04-15T10:52:24;15.20;97.10
26687;DHT22;14298;50.900;4.648;2023-04-15T10:55:12;15.50;97.10
26687;DHT22;14298;50.900;4.648;2023-04-15T10:57:44;15.40;97.10
26687;DHT22;14298;50.900;4.648;2023-04-15T11:00:17;15.20;97.10
26687;DHT22;14298;50.900;4.648;2023-04-15T11:02:54;15.30;97.10
26687;DHT22;14298;50.900;4.648;2023-04-15T11:08:12;15.20;97.10
26687;DHT22;14298;50.900;4.648;2023-04-15T11:13:19;15.50;97.10
26687;DHT22;14298;50.900;4.648;2023-04-15T11:15:56;15.50;97.10
26687;DHT22;14298;50.900;4.648;2023-04-15T11:18:28;15.30;97.10
26687;DHT22;14298;50.900;4.648;2023-04-15T11:21:00;15.60;97.10
26687;DHT22;14298;50.900;4.648;2023-04-15T11:23:34;15.40;97.10
26687;DHT22;14298;50.900;4.648;2023-04-15T11:26:08;15.60;97.10
26687;DHT22;14298;50.900;4.648;2023-04-15T11:28:40;15.80;97.10
26687;DHT22;14298;50.900;4.648;2023-04-15T11:31:16;16.00;97.10
26687;DHT22;14298;50.900;4.648;2023-04-15T11:33:59;15.60;97.10
26687;DHT22;14298;50.900;4.648;2023-04-15T11:36:35;15.40;97.10
26687;DHT22;14298;50.900;4.648;2023-04-15T11:39:05;15.50;97.10
26687;DHT22;14298;50.900;4.648;2023-04-15T11:41:35;15.50;97.10
26687;DHT22;14298;50.900;4.648;2023-04-15T11:44:14;15.60;97.10
26687;DHT22;14298;50.900;4.648;2023-04-15T11:46:34;15.50;97.10
26687;DHT22;14298;50.900;4.648;2023-04-15T11:49:03;15.40;97.10
26687;DHT22;14298;50.900;4.648;2023-04-15T11:51:32;15.50;97.10
26687;DHT22;14298;50.900;4.648;2023-04-15T11:54:01;15.50;97.10
26687;DHT22;14298;50.900;4.648;2023-04-15T11:56:29;15.70;97.10
26687;DHT22;14298;50.900;4.648;2023-04-15T11:58:58;15.50;97.10
26687;DHT22;14298;50.900;4.648;2023-04-15T12:01:34;15.50;97.10
26687;DHT22;14298;50.900;4.648;2023-04-15T12:04:15;15.40;97.10
26687;DHT22;14298;50.900;4.648;2023-04-15T12:06:46;15.30;97.10
26687;DHT22;14298;50.900;4.648;2023-04-15T12:09:15;15.40;97.10
26687;DHT22;14298;50.900;4.648;2023-04-15T12:11:46;15.40;97.10
26687;DHT22;14298;50.900;4.648;2023-04-15T12:14:31;15.50;97.10
26687;DHT22;14298;50.900;4.648;2023-04-15T12:17:04;15.30;97.10
26687;DHT22;14298;50.900;4.648;2023-04-15T12:19:40;15.40;97.10
26687;DHT22;14298;50.900;4.648;2023-04-15T12:22:12;15.60;97.10
26687;DHT22;14298;50.900;4.648;2023-04-15T12:24:43;15.50;97.10
26687;DHT22;14298;50.900;4.648;2023-04-15T12:27:15;15.50;97.10
26687;DHT22;14298;50.900;4.648;2023-04-15T12:29:44;15.50;97.10
26687;DHT22;14298;50.900;4.648;2023-04-15T12:32:14;15.60;97.10
26687;DHT22;14298;50.900;4.648;2023-04-15T12:34:44;15.80;97.10
26687;DHT22;14298;50.900;4.648;2023-04-15T12:37:13;15.70;97.10
26687;DHT22;14298;50.900;4.648;2023-04-15T12:39:43;15.40;97.10
26687;DHT22;14298;50.900;4.648;2023-04-15T12:42:12;15.30;97.10
26687;DHT22;14298;50.900;4.648;2023-04-15T12:44:40;15.60;97.10
26687;DHT22;14298;50.900;4.648;2023-04-15T12:47:10;15.70;97.10
26687;DHT22;14298;50.900;4.648;2023-04-15T12:49:39;15.70;97.10
26687;DHT22;14298;50.900;4.648;2023-04-15T12:52:07;15.70;97.10
26687;DHT22;14298;50.900;4.648;2023-04-15T12:54:36;15.80;97.10
26687;DHT22;14298;50.900;4.648;2023-04-15T12:57:05;15.80;97.10
26687;DHT22;14298;50.900;4.648;2023-04-15T12:59:34;15.70;97.10
26687;DHT22;14298;50.900;4.648;2023-04-15T13:02:03;15.60;97.10
26687;DHT22;14298;50.900;4.648;2023-04-15T13:04:32;15.70;97.10
26687;DHT22;14298;50.900;4.648;2023-04-15T13:07:01;15.80;97.10
26687;DHT22;14298;50.900;4.648;2023-04-15T13:09:29;15.80;97.10
26687;DHT22;14298;50.900;4.648;2023-04-15T13:11:59;15.80;97.10
26687;DHT22;14298;50.900;4.648;2023-04-15T13:14:27;15.80;97.10
26687;DHT22;14298;50.900;4.648;2023-04-15T13:16:55;15.80;97.10
26687;DHT22;14298;50.900;4.648;2023-04-15T13:19:24;15.70;97.10
26687;DHT22;14298;50.900;4.648;2023-04-15T13:21:53;15.80;97.10
26687;DHT22;14298;50.900;4.648;2023-04-15T13:24:21;15.80;97.10
26687;DHT22;14298;50.900;4.648;2023-04-15T13:26:50;15.70;97.10
26687;DHT22;14298;50.900;4.648;2023-04-15T13:29:18;15.80;97.10
26687;DHT22;14298;50.900;4.648;2023-04-15T13:31:46;15.80;97.10
26687;DHT22;14298;50.900;4.648;2023-04-15T13:34:14;15.80;97.10
26687;DHT22;14298;50.900;4.648;2023-04-15T13:36:43;15.80;97.10
26687;DHT22;14298;50.900;4.648;2023-04-15T13:39:12;15.70;97.10
26687;DHT22;14298;50.900;4.648;2023-04-15T13:41:40;15.60;97.10
26687;DHT22;14298;50.900;4.648;2023-04-15T13:44:09;15.60;97.10
26687;DHT22;14298;50.900;4.648;2023-04-15T13:46:38;15.60;97.10
26687;DHT22;14298;50.900;4.648;2023-04-15T13:49:08;15.50;97.10
26687;DHT22;14298;50.900;4.648;2023-04-15T13:51:36;15.80;97.10
26687;DHT22;14298;50.900;4.648;2023-04-15T13:54:04;15.80;97.10
26687;DHT22;14298;50.900;4.648;2023-04-15T13:56:33;15.90;97.10
26687;DHT22;14298;50.900;4.648;2023-04-15T13:59:01;15.80;97.10
26687;DHT22;14298;50.900;4.648;2023-04-15T14:01:30;15.50;97.10
26687;DHT22;14298;50.900;4.648;2023-04-15T14:03:58;15.40;97.10
26687;DHT22;14298;50.900;4.648;2023-04-15T14:06:27;15.50;97.10
26687;DHT22;14298;50.900;4.648;2023-04-15T14:08:55;15.40;97.10
26687;DHT22;14298;50.900;4.648;2023-04-15T14:11:24;15.60;97.10
26687;DHT22;14298;50.900;4.648;2023-04-15T14:13:52;15.70;97.10
26687;DHT22;14298;50.900;4.648;2023-04-15T14:16:21;15.70;97.10
26687;DHT22;14298;50.900;4.648;2023-04-15T14:18:49;15.50;97.10
26687;DHT22;14298;50.900;4.648;2023-04-15T14:21:18;15.20;97.10
26687;DHT22;14298;50.900;4.648;2023-04-15T14:23:46;15.20;97.10
26687;DHT22;14298;50.900;4.648;2023-04-15T14:26:14;15.20;97.10
26687;DHT22;14298;50.900;4.648;2023-04-15T14:28:43;15.30;97.10
26687;DHT22;14298;50.900;4.648;2023-04-15T14:31:11;15.30;97.10
26687;DHT22;14298;50.900;4.648;2023-04-15T14:33:40;15.10;97.10
26687;DHT22;14298;50.900;4.648;2023-04-15T14:36:09;15.00;97.10
26687;DHT22;14298;50.900;4.648;2023-04-15T14:38:37;15.00;97.10
26687;DHT22;14298;50.900;4.648;2023-04-15T14:41:07;15.10;97.10
26687;DHT22;14298;50.900;4.648;2023-04-15T14:43:36;14.90;97.10
26687;DHT22;14298;50.900;4.648;2023-04-15T14:46:06;14.90;97.10
26687;DHT22;14298;50.900;4.648;2023-04-15T14:48:35;14.90;97.10
26687;DHT22;14298;50.900;4.648;2023-04-15T14:51:04;15.00;97.10
26687;DHT22;14298;50.900;4.648;2023-04-15T14:53:32;15.10;97.10
26687;DHT22;14298;50.900;4.648;2023-04-15T14:56:00;15.10;97.10
26687;DHT22;14298;50.900;4.648;2023-04-15T14:58:29;15.00;97.10
26687;DHT22;14298;50.900;4.648;2023-04-15T15:00:59;14.90;97.10
26687;DHT22;14298;50.900;4.648;2023-04-15T15:03:29;14.90;97.10
26687;DHT22;14298;50.900;4.648;2023-04-15T15:05:58;15.00;97.10
26687;DHT22;14298;50.900;4.648;2023-04-15T15:08:26;15.10;97.10
26687;DHT22;14298;50.900;4.648;2023-04-15T15:10:54;15.20;97.10
26687;DHT22;14298;50.900;4.648;2023-04-15T15:13:23;15.10;97.10
26687;DHT22;14298;50.900;4.648;2023-04-15T15:15:52;15.00;97.10
26687;DHT22;14298;50.900;4.648;2023-04-15T15:18:20;14.90;97.10
26687;DHT22;14298;50.900;4.648;2023-04-15T15:20:49;14.80;97.10
26687;DHT22;14298;50.900;4.648;2023-04-15T15:23:17;14.80;97.10
26687;DHT22;14298;50.900;4.648;2023-04-15T15:25:45;14.80;97.10
26687;DHT22;14298;50.900;4.648;2023-04-15T15:28:14;14.80;97.10
26687;DHT22;14298;50.900;4.648;2023-04-15T15:30:42;14.80;97.10
26687;DHT22;14298;50.900;4.648;2023-04-15T15:33:11;14.80;97.10
26687;DHT22;14298;50.900;4.648;2023-04-15T15:35:39;14.90;97.10
26687;DHT22;14298;50.900;4.648;2023-04-15T15:38:10;14.80;97.10
26687;DHT22;14298;50.900;4.648;2023-04-15T15:40:38;14.80;97.10
26687;DHT22;14298;50.900;4.648;2023-04-15T15:43:07;14.90;97.10
26687;DHT22;14298;50.900;4.648;2023-04-15T15:45:35;15.00;97.10
26687;DHT22;14298;50.900;4.648;2023-04-15T15:48:04;15.00;97.10
26687;DHT22;14298;50.900;4.648;2023-04-15T15:50:33;15.00;97.10
26687;DHT22;14298;50.900;4.648;2023-04-15T15:53:02;15.00;97.10
26687;DHT22;14298;50.900;4.648;2023-04-15T15:55:30;15.10;97.10
26687;DHT22;14298;50.900;4.648;2023-04-15T15:57:58;15.00;97.10
26687;DHT22;14298;50.900;4.648;2023-04-15T16:00:27;14.90;97.10